Time,TemperatureF,DewpointF,PressureIn,WindDirection,WindDirectionDegrees,WindSpeedMPH,WindSpeedGustMPH,Humidity,HourlyPrecipIn,Conditions,Clouds,dailyrainin,SoftwareType,DateUTC
2013-07-23 00:01:00,74.0,74.0,30.11,North,0,0.0,0.0,100,99.99,,,-99.99,,2013-07-23 04:01:00,
2013-07-23 00:11:00,74.0,74.0,30.11,North,0,0.0,0.0,100,99.99,,,-99.99,,2013-07-23 04:11:00,
2013-07-23 00:22:00,74.0,74.0,30.11,North,0,0.0,0.0,100,99.99,,,-99.99,,2013-07-23 04:22:00,
2013-07-23 00:43:00,74.0,74.0,30.11,North,0,0.0,0.0,100,99.99,,,-99.99,,2013-07-23 04:43:00,
2013-07-23 01:02:00,74.0,74.0,30.10,North,0,0.0,0.0,100,99.99,,,-99.99,,2013-07-23 05:02:00,
2013-07-23 01:22:00,74.0,74.0,30.10,North,0,0.0,0.0,100,99.99,,,-99.99,,2013-07-23 05:22:00,
2013-07-23 01:33:00,74.0,74.0,30.09,SW,218,4.0,6.0,100,99.99,,,-99.99,,2013-07-23 05:33:00,
2013-07-23 01:44:00,74.0,74.0,30.09,South,191,3.0,5.0,100,99.99,,,-99.99,,2013-07-23 05:44:00,
2013-07-23 01:52:00,74.0,74.0,30.09,SW,228,3.0,6.0,100,99.99,,,-99.99,,2013-07-23 05:52:00,
2013-07-23 02:33:00,74.0,74.0,30.08,SW,229,1.0,4.0,100,99.99,,,-99.99,,2013-07-23 06:33:00,
2013-07-23 02:42:00,74.0,74.0,30.08,SW,224,3.0,5.0,100,99.99,,,-99.99,,2013-07-23 06:42:00,
2013-07-23 02:52:00,74.0,74.0,30.07,SW,228,2.0,4.0,100,99.99,,,-99.99,,2013-07-23 06:52:00,
2013-07-23 03:01:00,74.0,74.0,30.07,SW,228,2.0,4.0,100,99.99,,,-99.99,,2013-07-23 07:01:00,
2013-07-23 03:12:00,74.0,74.0,30.07,SW,228,2.0,4.0,100,99.99,,,-99.99,,2013-07-23 07:12:00,
2013-07-23 03:22:00,74.0,74.0,30.07,SSW,201,2.0,3.0,100,99.99,,,-99.99,,2013-07-23 07:22:00,
2013-07-23 03:33:00,74.0,74.0,30.07,North,0,0.0,0.0,100,99.99,,,-99.99,,2013-07-23 07:33:00,
2013-07-23 03:42:00,74.0,74.0,30.07,North,0,0.0,0.0,100,99.99,,,-99.99,,2013-07-23 07:42:00,
2013-07-23 03:52:00,74.0,74.0,30.07,North,0,0.0,0.0,100,99.99,,,-99.99,,2013-07-23 07:52:00,
2013-07-23 04:33:00,74.0,74.0,30.06,North,0,0.0,0.0,100,99.99,,,-99.99,,2013-07-23 08:33:00,
2013-07-23 04:43:00,74.0,74.0,30.06,North,0,0.0,0.0,100,99.99,,,-99.99,,2013-07-23 08:43:00,
2013-07-23 04:52:00,74.0,74.0,30.06,North,0,0.0,0.0,100,99.99,,,-99.99,,2013-07-23 08:52:00,
2013-07-23 05:01:00,74.0,74.0,30.06,North,0,0.0,0.0,100,99.99,,,-99.99,,2013-07-23 09:01:00,
2013-07-23 05:11:00,74.0,74.0,30.05,SSW,210,2.0,3.0,100,99.99,,,-99.99,,2013-07-23 09:11:00,
2013-07-23 05:22:00,74.0,74.0,30.05,WSW,238,0.0,2.0,100,99.99,,,-99.99,,2013-07-23 09:22:00,
2013-07-23 05:42:00,74.0,74.0,30.05,WSW,239,2.0,4.0,100,99.99,,,-99.99,,2013-07-23 09:42:00,
2013-07-23 05:53:00,74.0,74.0,30.05,SW,221,1.0,3.0,100,99.99,,,-99.99,,2013-07-23 09:53:00,
2013-07-23 06:02:00,74.0,74.0,30.05,SW,221,1.0,3.0,100,99.99,,,-99.99,,2013-07-23 10:02:00,
2013-07-23 06:32:00,74.0,74.0,30.06,North,0,0.0,0.0,100,99.99,,,-99.99,,2013-07-23 10:32:00,
2013-07-23 07:02:00,74.0,74.0,30.06,North,0,0.0,0.0,100,99.99,,,-99.99,,2013-07-23 11:02:00,
2013-07-23 07:32:00,73.0,73.0,30.07,North,0,0.0,0.0,100,99.99,,,-99.99,,2013-07-23 11:32:00,
2013-07-23 07:43:00,74.0,74.0,30.07,North,0,0.0,0.0,100,99.99,,,-99.99,,2013-07-23 11:43:00,
2013-07-23 07:52:00,74.0,74.0,30.07,North,0,0.0,0.0,100,99.99,,,-99.99,,2013-07-23 11:52:00,
2013-07-23 08:02:00,74.0,74.0,30.07,North,0,0.0,0.0,100,99.99,,,-99.99,,2013-07-23 12:02:00,
2013-07-23 08:22:00,75.0,75.0,30.08,North,0,0.0,0.0,100,99.99,,,-99.99,,2013-07-23 12:22:00,
2013-07-23 08:33:00,76.0,76.0,30.08,North,0,0.0,0.0,100,99.99,,,-99.99,,2013-07-23 12:33:00,
2013-07-23 08:43:00,77.0,77.0,30.08,WSW,253,0.0,3.0,100,99.99,,,-99.99,,2013-07-23 12:43:00,
2013-07-23 09:32:00,79.0,79.0,30.09,WNW,284,4.0,7.0,100,99.99,,,-99.99,,2013-07-23 13:32:00,
2013-07-23 09:52:00,80.0,80.0,30.10,WNW,290,3.0,5.0,100,99.99,,,-99.99,,2013-07-23 13:52:00,
2013-07-23 10:02:00,80.0,80.0,30.10,SW,226,4.0,8.0,100,99.99,,,-99.99,,2013-07-23 14:02:00,
2013-07-23 10:12:00,81.0,81.0,30.10,WSW,257,5.0,8.0,100,99.99,,,-99.99,,2013-07-23 14:12:00,
2013-07-23 10:44:00,84.0,79.0,30.09,West,273,5.0,9.0,86,99.99,,,-99.99,,2013-07-23 14:44:00,
2013-07-23 10:53:00,85.0,79.0,30.09,West,269,5.0,8.0,82,99.99,,,-99.99,,2013-07-23 14:53:00,
2013-07-23 11:32:00,86.0,75.0,30.09,West,273,7.0,11.0,69,99.99,,,-99.99,,2013-07-23 15:32:00,
2013-07-23 12:01:00,85.0,77.0,30.08,WSW,255,4.0,9.0,76,99.99,,,-99.99,,2013-07-23 16:01:00,
2013-07-23 12:33:00,87.0,75.0,30.07,West,262,6.0,10.0,68,99.99,,,-99.99,,2013-07-23 16:33:00,
2013-07-23 12:43:00,87.0,74.0,30.06,SW,235,6.0,10.0,65,99.99,,,-99.99,,2013-07-23 16:43:00,
2013-07-23 13:02:00,88.0,73.0,30.06,SW,226,7.0,13.0,61,99.99,,,-99.99,,2013-07-23 17:02:00,
2013-07-23 13:42:00,88.0,71.0,30.05,West,276,5.0,10.0,57,99.99,,,-99.99,,2013-07-23 17:42:00,
2013-07-23 14:34:00,91.0,71.0,30.04,West,277,7.0,13.0,53,99.99,,,-99.99,,2013-07-23 18:34:00,
2013-07-23 14:48:00,87.0,73.0,30.04,NW,311,13.0,24.0,63,99.99,,,-99.99,,2013-07-23 18:48:00,
2013-07-23 14:55:00,87.0,73.0,30.04,NW,311,13.0,24.0,63,99.99,,,-99.99,,2013-07-23 18:55:00,
2013-07-23 15:03:00,81.0,72.0,30.06,NW,307,11.0,20.0,75,99.99,,,-99.99,,2013-07-23 19:03:00,
2013-07-23 16:06:00,80.0,72.0,30.03,NW,305,5.0,8.0,76,99.99,,,-99.99,,2013-07-23 20:06:00,
2013-07-23 16:13:00,80.0,72.0,30.03,NW,305,5.0,8.0,76,99.99,,,-99.99,,2013-07-23 20:13:00,
2013-07-23 16:23:00,81.0,72.0,30.01,NNW,346,2.0,3.0,74,99.99,,,-99.99,,2013-07-23 20:23:00,
2013-07-23 16:46:00,85.0,71.0,30.01,NW,322,6.0,10.0,63,99.99,,,-99.99,,2013-07-23 20:46:00,
2013-07-23 16:56:00,85.0,70.0,30.00,NW,321,8.0,13.0,60,99.99,,,-99.99,,2013-07-23 20:56:00,
2013-07-23 17:04:00,85.0,70.0,30.00,NW,321,8.0,13.0,60,99.99,,,-99.99,,2013-07-23 21:04:00,
2013-07-23 17:23:00,86.0,73.0,29.99,NW,318,7.0,11.0,65,99.99,,,-99.99,,2013-07-23 21:23:00,
2013-07-23 17:55:00,86.0,72.0,30.00,NW,321,9.0,14.0,64,99.99,,,-99.99,,2013-07-23 21:55:00,
2013-07-23 18:05:00,85.0,72.0,30.00,NW,323,10.0,14.0,66,99.99,,,-99.99,,2013-07-23 22:05:00,
2013-07-23 18:24:00,84.0,71.0,30.01,WNW,295,7.0,13.0,66,99.99,,,-99.99,,2013-07-23 22:24:00,
2013-07-23 18:34:00,84.0,72.0,30.01,NW,321,8.0,16.0,67,99.99,,,-99.99,,2013-07-23 22:34:00,
2013-07-23 18:46:00,82.0,70.0,30.00,NW,311,7.0,14.0,67,99.99,,,-99.99,,2013-07-23 22:46:00,
2013-07-23 18:56:00,82.0,70.0,30.00,NW,311,7.0,14.0,67,99.99,,,-99.99,,2013-07-23 22:56:00,
2013-07-23 19:06:00,82.0,70.0,30.00,NW,311,7.0,14.0,67,99.99,,,-99.99,,2013-07-23 23:06:00,
2013-07-23 19:24:00,81.0,69.0,29.99,NW,312,7.0,12.0,66,99.99,,,-99.99,,2013-07-23 23:24:00,
2013-07-23 19:56:00,81.0,69.0,29.98,NW,304,5.0,8.0,68,99.99,,,-99.99,,2013-07-23 23:56:00,
2013-07-23 20:09:00,79.0,70.0,29.97,NW,315,3.0,5.0,74,99.99,,,-99.99,,2013-07-24 00:09:00,
2013-07-23 20:14:00,79.0,70.0,29.97,NW,308,3.0,4.0,75,99.99,,,-99.99,,2013-07-24 00:14:00,
2013-07-23 20:34:00,78.0,71.0,29.97,NW,318,4.0,6.0,78,99.99,,,-99.99,,2013-07-24 00:34:00,
2013-07-23 20:48:00,78.0,71.0,29.97,WNW,291,3.0,5.0,79,99.99,,,-99.99,,2013-07-24 00:48:00,
2013-07-23 20:55:00,78.0,71.0,29.97,WNW,291,3.0,5.0,79,99.99,,,-99.99,,2013-07-24 00:55:00,
2013-07-23 21:04:00,78.0,72.0,29.96,WNW,285,3.0,5.0,81,99.99,,,-99.99,,2013-07-24 01:04:00,
2013-07-23 21:14:00,78.0,72.0,29.96,WNW,285,3.0,5.0,81,99.99,,,-99.99,,2013-07-24 01:14:00,
2013-07-23 21:33:00,77.0,72.0,29.98,WNW,283,4.0,5.0,85,99.99,,,-99.99,,2013-07-24 01:33:00,
2013-07-23 21:44:00,77.0,72.0,29.99,NW,319,3.0,5.0,86,99.99,,,-99.99,,2013-07-24 01:44:00,
2013-07-23 21:46:00,77.0,73.0,30.00,West,266,0.0,2.0,88,99.99,,,-99.99,,2013-07-24 01:46:00,
2013-07-23 22:01:00,77.0,72.0,29.99,NW,319,3.0,5.0,86,99.99,,,-99.99,,2013-07-24 02:01:00,
2013-07-23 22:17:00,77.0,73.0,30.00,West,266,0.0,2.0,88,99.99,,,-99.99,,2013-07-24 02:17:00,
2013-07-23 22:27:00,77.0,73.0,30.00,West,266,0.0,2.0,88,99.99,,,-99.99,,2013-07-24 02:27:00,
2013-07-23 22:39:00,77.0,73.0,30.00,West,266,0.0,2.0,88,99.99,,,-99.99,,2013-07-24 02:39:00,
2013-07-23 23:24:00,76.0,75.0,30.02,North,0,0.0,0.0,98,99.99,,,-99.99,,2013-07-24 03:24:00,
2013-07-23 23:55:00,76.0,76.0,30.02,North,0,0.0,0.0,100,99.99,,,-99.99,,2013-07-24 03:55:00,